Time;durP1;ratioP1;P1;durP2;ratioP2;P2;SDS_P1;SDS_P2;PMS_P1;PMS_P2;Temp;Humidity;BMP_temperature;BMP_pressure;BME280_temperature;BME280_humidity;BME280_pressure;Samples;Min_cycle;Max_cycle;Signal;HPM_P1;HPM_P2
2023/01/15 00:02:05;;;;;;;9.63;1.65;;;6.30;99.90;;;;;;5026748;28;20129;-60
2023/01/15 00:04:31;;;;;;;6.85;1.80;;;6.40;99.90;;;;;;5026319;28;20045;-60
2023/01/15 00:06:56;;;;;;;6.68;1.52;;;6.20;99.90;;;;;;5026887;28;20564;-60
2023/01/15 00:09:22;;;;;;;10.57;1.85;;;6.20;99.90;;;;;;5025199;28;20051;-60
2023/01/15 00:11:47;;;;;;;7.63;1.80;;;6.20;99.90;;;;;;5026563;28;20152;-62
2023/01/15 00:14:13;;;;;;;7.60;1.63;;;6.30;99.90;;;;;;5026632;28;20064;-62
2023/01/15 00:16:39;;;;;;;6.53;1.35;;;6.40;99.90;;;;;;5026954;28;20041;-59
2023/01/15 00:19:09;;;;;;;10.95;1.63;;;6.40;99.90;;;;;;5026727;28;20457;-61
2023/01/15 00:21:35;;;;;;;8.18;1.70;;;6.20;99.90;;;;;;5008309;28;20056;-61
2023/01/15 00:29:31;;;;;;;8.43;1.40;;;6.20;99.90;;;;;;5025300;28;20056;-60
2023/01/15 00:32:00;;;;;;;8.63;1.50;;;6.40;99.90;;;;;;5026469;28;20085;-61
2023/01/15 00:34:26;;;;;;;8.05;1.30;;;6.30;99.90;;;;;;5027332;28;20041;-61
2023/01/15 00:36:52;;;;;;;11.52;1.90;;;6.20;99.90;;;;;;5026565;28;20128;-60
2023/01/15 00:39:18;;;;;;;7.38;1.70;;;6.30;99.90;;;;;;5025903;28;20452;-60
2023/01/15 00:41:44;;;;;;;12.15;1.80;;;6.20;99.90;;;;;;5026181;28;20080;-62
2023/01/15 00:44:10;;;;;;;7.15;1.25;;;6.40;99.90;;;;;;5027041;28;20044;-59
2023/01/15 00:46:36;;;;;;;7.13;1.50;;;6.20;99.90;;;;;;5026963;28;20060;-61
2023/01/15 00:49:03;;;;;;;10.07;1.63;;;6.30;99.90;;;;;;5026198;28;20085;-61
2023/01/15 00:51:28;;;;;;;11.48;1.60;;;6.30;99.90;;;;;;5027088;28;20275;-60
2023/01/15 00:53:54;;;;;;;11.68;1.90;;;6.20;99.90;;;;;;5026980;28;20049;-60
2023/01/15 00:56:20;;;;;;;10.05;2.00;;;6.20;99.90;;;;;;5025315;28;20041;-61
2023/01/15 00:58:46;;;;;;;7.93;1.65;;;6.20;99.90;;;;;;5026615;28;20073;-61
2023/01/15 01:01:13;;;;;;;11.70;1.70;;;6.20;99.90;;;;;;5026908;28;20511;-61
2023/01/15 01:03:38;;;;;;;11.68;2.03;;;6.20;99.90;;;;;;5026658;28;20449;-60
2023/01/15 01:06:05;;;;;;;7.80;1.85;;;6.10;99.90;;;;;;5026257;28;20045;-60
2023/01/15 01:08:31;;;;;;;10.65;2.13;;;6.10;99.90;;;;;;5026677;28;20425;-60
2023/01/15 01:11:05;;;;;;;9.95;1.85;;;6.10;99.90;;;;;;5025754;28;20572;-60
2023/01/15 01:13:31;;;;;;;6.75;1.63;;;6.20;99.90;;;;;;5024906;28;20128;-59
2023/01/15 01:15:57;;;;;;;9.90;1.85;;;6.30;99.90;;;;;;5026465;28;20073;-60
2023/01/15 01:18:23;;;;;;;7.97;1.73;;;6.30;99.90;;;;;;5026186;28;20545;-60
2023/01/15 01:20:48;;;;;;;12.32;2.42;;;6.10;99.90;;;;;;5025640;28;20139;-60
2023/01/15 01:23:14;;;;;;;13.98;1.75;;;6.20;99.90;;;;;;5026595;28;20037;-60
2023/01/15 01:25:39;;;;;;;10.50;1.60;;;6.40;99.90;;;;;;5025306;28;20053;-62
2023/01/15 01:28:05;;;;;;;8.75;1.48;;;6.10;99.90;;;;;;5025735;28;20466;-60
2023/01/15 01:30:31;;;;;;;12.02;2.38;;;6.20;99.90;;;;;;5026035;28;20529;-60
2023/01/15 01:32:56;;;;;;;6.18;1.38;;;6.10;99.90;;;;;;5025593;28;20045;-61
2023/01/15 01:35:22;;;;;;;12.38;2.08;;;6.10;99.90;;;;;;5025544;28;20096;-61
2023/01/15 01:37:49;;;;;;;11.48;2.50;;;6.20;99.90;;;;;;5025823;28;20087;-60
2023/01/15 01:40:15;;;;;;;16.48;2.38;;;6.20;99.90;;;;;;5025167;28;20543;-61
2023/01/15 01:42:41;;;;;;;8.75;1.77;;;6.30;99.90;;;;;;5024685;28;20291;-60
2023/01/15 01:45:31;;;;;;;12.65;2.05;;;6.10;99.90;;;;;;5025686;28;20068;-60
2023/01/15 01:48:01;;;;;;;10.25;1.63;;;6.10;99.90;;;;;;5025055;28;20433;-60
2023/01/15 01:50:27;;;;;;;10.93;1.88;;;6.10;99.90;;;;;;5025329;28;20045;-59
2023/01/15 01:53:02;;;;;;;9.35;1.75;;;6.10;99.90;;;;;;5024741;28;20048;-61
2023/01/15 01:55:29;;;;;;;7.63;1.30;;;6.10;99.90;;;;;;5024347;28;20053;-61
2023/01/15 01:57:58;;;;;;;9.70;1.80;;;6.30;99.90;;;;;;5024098;28;20045;-60
2023/01/15 02:00:24;;;;;;;10.05;1.60;;;6.40;99.90;;;;;;5025338;28;20476;-60
2023/01/15 02:02:51;;;;;;;10.35;1.75;;;7.00;99.90;;;;;;5023683;28;20163;-62
2023/01/15 02:05:32;;;;;;;8.32;1.60;;;6.20;99.90;;;;;;5025429;28;20465;-61
2023/01/15 02:07:59;;;;;;;9.90;2.35;;;6.30;99.90;;;;;;5025280;28;20041;-60
2023/01/15 02:10:25;;;;;;;12.43;1.88;;;6.30;99.90;;;;;;5023999;28;20049;-61
2023/01/15 02:13:03;;;;;;;17.23;2.15;;;6.10;99.90;;;;;;5025294;28;20072;-62
2023/01/15 02:15:42;;;;;;;5.50;1.63;;;6.30;99.90;;;;;;5024665;28;20037;-61
2023/01/15 02:18:31;;;;;;;12.23;2.00;;;6.40;99.90;;;;;;5025244;28;20050;-60
2023/01/15 02:21:21;;;;;;;11.70;2.15;;;6.30;99.90;;;;;;5024614;28;20043;-61
2023/01/15 02:24:23;;;;;;;9.25;2.15;;;6.20;99.90;;;;;;5024205;28;20045;-60
2023/01/15 02:26:59;;;;;;;11.85;2.25;;;6.10;99.90;;;;;;5023615;28;20047;-62
2023/01/15 02:29:46;;;;;;;11.10;1.85;;;6.30;99.90;;;;;;5024613;28;20497;-59
2023/01/15 02:32:28;;;;;;;7.78;1.75;;;6.10;99.90;;;;;;5024675;28;20391;-60
2023/01/15 02:34:58;;;;;;;15.23;2.40;;;6.30;99.90;;;;;;5025288;28;20041;-60
2023/01/15 02:37:30;;;;;;;12.27;2.67;;;6.40;99.90;;;;;;5024998;28;20069;-61
2023/01/15 02:40:00;;;;;;;11.07;2.28;;;6.20;99.90;;;;;;5023751;28;20125;-60
2023/01/15 02:42:29;;;;;;;13.48;2.40;;;6.30;99.90;;;;;;5024835;28;20120;-61
2023/01/15 02:44:59;;;;;;;11.05;2.55;;;6.30;99.90;;;;;;5024922;28;20594;-61
2023/01/15 02:47:29;;;;;;;11.98;2.10;;;6.20;99.90;;;;;;5024445;28;20132;-61
2023/01/15 02:49:58;;;;;;;13.75;2.15;;;6.00;99.90;;;;;;5024841;28;20049;-60
2023/01/15 02:52:50;;;;;;;13.50;2.22;;;6.10;99.90;;;;;;5024838;28;20045;-61
2023/01/15 02:55:29;;;;;;;7.93;1.58;;;6.10;99.90;;;;;;5019501;28;20391;-60
2023/01/15 02:57:57;;;;;;;8.25;2.08;;;6.20;99.90;;;;;;5024133;28;20184;-60
2023/01/15 03:00:25;;;;;;;10.40;1.63;;;6.10;99.90;;;;;;5023757;28;20045;-61
2023/01/15 03:03:22;;;;;;;10.07;2.13;;;6.20;99.90;;;;;;5025348;28;20045;-62
2023/01/15 03:05:59;;;;;;;8.82;1.92;;;6.30;99.90;;;;;;5028747;28;20045;-61
2023/01/15 03:08:25;;;;;;;10.20;1.83;;;6.20;99.90;;;;;;5028263;28;20430;-61
2023/01/15 03:11:10;;;;;;;12.05;1.92;;;6.30;99.90;;;;;;5028271;28;20044;-60
2023/01/15 03:13:44;;;;;;;;;;;6.20;99.90;;;;;;5028440;28;20107;-60
2023/01/15 03:16:39;;;;;;;11.55;1.75;;;6.00;99.90;;;;;;5028575;28;20355;-60
2023/01/15 03:19:26;;;;;;;12.35;2.50;;;6.00;99.90;;;;;;5028004;28;20044;-60
2023/01/15 03:22:08;;;;;;;10.88;2.28;;;6.20;99.90;;;;;;5028429;28;20046;-60
2023/01/15 03:24:46;;;;;;;13.18;2.25;;;6.10;99.90;;;;;;5025835;28;20045;-60
2023/01/15 03:27:12;;;;;;;12.57;2.33;;;6.10;99.90;;;;;;5027621;28;20050;-60
2023/01/15 03:29:43;;;;;;;14.35;2.13;;;6.00;99.90;;;;;;5010053;28;20521;-59
2023/01/15 03:32:09;;;;;;;9.98;2.47;;;6.10;99.90;;;;;;5027993;28;20057;-60
2023/01/15 03:34:44;;;;;;;9.73;2.17;;;6.10;99.90;;;;;;5028318;28;20056;-61
2023/01/15 03:37:10;;;;;;;13.77;2.42;;;6.00;99.90;;;;;;5028172;28;20041;-59
2023/01/15 03:39:36;;;;;;;8.70;2.05;;;6.20;99.90;;;;;;5027610;28;20061;-60
2023/01/15 03:42:23;;;;;;;8.80;2.00;;;6.20;99.90;;;;;;5027826;28;20061;-60
2023/01/15 03:44:52;;;;;;;9.43;1.95;;;6.10;99.90;;;;;;5028324;28;20413;-60
2023/01/15 03:47:28;;;;;;;9.52;1.92;;;6.10;99.90;;;;;;5027775;28;20049;-60
2023/01/15 03:50:13;;;;;;;11.73;2.30;;;6.10;99.90;;;;;;5028147;28;20331;-62
2023/01/15 03:53:13;;;;;;;10.85;1.92;;;6.10;99.90;;;;;;5027396;28;20128;-60
2023/01/15 03:56:00;;;;;;;15.50;2.60;;;6.20;99.90;;;;;;5009272;28;20547;-60
2023/01/15 03:58:41;;;;;;;9.88;1.95;;;6.20;99.90;;;;;;5027826;28;20430;-61
2023/01/15 04:01:11;;;;;;;9.75;1.67;;;6.10;99.90;;;;;;5026878;28;20132;-60
2023/01/15 04:03:38;;;;;;;6.15;1.17;;;6.10;99.90;;;;;;5027519;28;20041;-60
2023/01/15 04:06:05;;;;;;;14.38;2.28;;;6.10;99.90;;;;;;5027377;28;20419;-60
2023/01/15 04:08:37;;;;;;;9.75;1.75;;;5.90;99.90;;;;;;5027247;28;20135;-59
2023/01/15 04:11:02;;;;;;;13.57;2.00;;;6.00;99.90;;;;;;5025521;28;20042;-61
2023/01/15 04:13:28;;;;;;;14.05;2.38;;;5.90;99.90;;;;;;5026185;28;20042;-60
2023/01/15 04:15:55;;;;;;;12.70;2.45;;;5.90;99.90;;;;;;5026334;28;20037;-60
2023/01/15 04:18:20;;;;;;;12.63;2.58;;;6.00;99.90;;;;;;5027655;28;20033;-60
2023/01/15 04:20:47;;;;;;;11.68;2.50;;;5.90;99.90;;;;;;5027162;28;20402;-60
2023/01/15 04:23:13;;;;;;;12.90;2.45;;;5.90;99.90;;;;;;5026953;28;20440;-60
2023/01/15 04:25:39;;;;;;;8.02;1.48;;;5.90;99.90;;;;;;5026430;28;20100;-60
2023/01/15 04:28:06;;;;;;;13.98;2.20;;;6.10;99.90;;;;;;5027140;28;20296;-60
2023/01/15 04:30:33;;;;;;;11.55;1.90;;;5.90;99.90;;;;;;5026866;28;20048;-60
2023/01/15 04:32:59;;;;;;;12.38;2.20;;;6.10;99.90;;;;;;5026857;28;20056;-61
2023/01/15 04:35:25;;;;;;;14.77;2.85;;;6.10;99.90;;;;;;5027590;28;20413;-60
2023/01/15 04:37:58;;;;;;;11.57;2.33;;;5.90;99.90;;;;;;5027064;28;20033;-60
2023/01/15 04:46:10;;;;;;;10.20;1.80;;;5.90;99.90;;;;;;5014367;28;20049;-59
2023/01/15 04:48:38;;;;;;;11.65;2.30;;;5.80;99.90;;;;;;5026314;28;20124;-60
2023/01/15 04:51:04;;;;;;;13.15;2.50;;;5.80;99.90;;;;;;5026531;28;20144;-60
2023/01/15 04:53:30;;;;;;;7.30;1.08;;;5.80;99.90;;;;;;5026347;28;20402;-62
2023/01/15 04:56:01;;;;;;;6.20;1.27;;;5.90;99.90;;;;;;5026377;28;20086;-59
2023/01/15 04:58:26;;;;;;;13.63;2.55;;;5.90;99.90;;;;;;5027154;28;20053;-60
2023/01/15 05:00:52;;;;;;;9.95;1.52;;;6.00;99.90;;;;;;5026819;28;20065;-60
2023/01/15 05:03:18;;;;;;;12.68;2.72;;;6.00;99.90;;;;;;5026253;28;20522;-60
2023/01/15 05:05:43;;;;;;;12.35;2.03;;;5.70;99.90;;;;;;5026147;28;20041;-61
2023/01/15 05:08:09;;;;;;;10.38;2.20;;;5.70;99.90;;;;;;5026464;28;20036;-60
2023/01/15 05:10:35;;;;;;;10.88;1.60;;;5.80;99.90;;;;;;5025365;28;20107;-60
2023/01/15 05:13:00;;;;;;;12.23;2.10;;;5.80;99.90;;;;;;5026096;28;20073;-62
2023/01/15 05:15:26;;;;;;;12.20;1.80;;;5.80;99.90;;;;;;5026680;28;20521;-59
2023/01/15 05:17:52;;;;;;;13.07;2.47;;;5.90;99.90;;;;;;5026139;28;20051;-61
2023/01/15 05:20:17;;;;;;;9.80;1.75;;;5.90;99.90;;;;;;5025863;28;20038;-61
2023/01/15 05:22:43;;;;;;;14.77;2.90;;;5.70;99.90;;;;;;5025963;28;20037;-61
2023/01/15 05:25:09;;;;;;;12.27;1.92;;;5.70;99.90;;;;;;5025413;28;20044;-60
2023/01/15 05:27:34;;;;;;;12.88;1.58;;;5.70;99.90;;;;;;5026260;28;20053;-60
2023/01/15 05:30:00;;;;;;;12.73;2.00;;;5.90;99.90;;;;;;5025667;28;20041;-62
2023/01/15 05:32:26;;;;;;;13.80;2.33;;;5.80;99.90;;;;;;5026168;28;20132;-60
2023/01/15 05:34:51;;;;;;;12.18;2.63;;;5.80;99.90;;;;;;5026147;28;20053;-60
2023/01/15 05:37:17;;;;;;;12.30;1.92;;;5.70;99.90;;;;;;5025465;28;20045;-61
2023/01/15 05:39:43;;;;;;;10.55;2.17;;;5.70;99.90;;;;;;5025195;28;20258;-60
2023/01/15 05:42:08;;;;;;;10.93;1.80;;;5.60;99.90;;;;;;5025926;28;20048;-59
2023/01/15 05:44:34;;;;;;;11.85;1.95;;;5.60;99.90;;;;;;5025723;28;20559;-60
2023/01/15 05:47:02;;;;;;;12.23;2.53;;;5.60;99.90;;;;;;5026521;28;20052;-62
2023/01/15 05:49:31;;;;;;;10.40;2.25;;;5.60;99.90;;;;;;5024788;28;20050;-61
2023/01/15 05:51:59;;;;;;;8.30;1.90;;;5.40;99.90;;;;;;5023738;28;20053;-61
2023/01/15 05:54:31;;;;;;;7.03;1.73;;;5.50;99.90;;;;;;5024735;28;20052;-60
2023/01/15 05:56:57;;;;;;;11.65;2.13;;;5.60;99.90;;;;;;5025849;28;20118;-60
2023/01/15 05:59:25;;;;;;;12.57;2.58;;;5.50;99.90;;;;;;5025198;28;20292;-60
2023/01/15 06:01:52;;;;;;;12.15;3.10;;;5.40;99.90;;;;;;5025521;28;20467;-60
2023/01/15 06:04:20;;;;;;;13.30;2.60;;;5.40;99.90;;;;;;5025235;28;20084;-60
2023/01/15 06:06:47;;;;;;;10.43;2.42;;;5.40;99.90;;;;;;5023827;28;20061;-61
2023/01/15 06:09:13;;;;;;;12.40;2.60;;;5.30;99.90;;;;;;5024288;28;20064;-60
2023/01/15 06:11:40;;;;;;;7.80;1.55;;;5.30;99.90;;;;;;5025503;28;20037;-60
2023/01/15 06:14:06;;;;;;;8.05;1.15;;;5.30;99.90;;;;;;5025072;28;20045;-60
2023/01/15 06:16:32;;;;;;;13.85;2.38;;;5.30;99.90;;;;;;5025273;28;20052;-60
2023/01/15 06:19:05;;;;;;;9.18;2.00;;;5.40;99.90;;;;;;5025640;28;20597;-60
2023/01/15 06:21:32;;;;;;;10.68;1.92;;;5.30;99.90;;;;;;5024744;28;20041;-61
2023/01/15 06:23:59;;;;;;;12.52;2.45;;;5.20;99.90;;;;;;5025217;28;20053;-61
2023/01/15 06:26:24;;;;;;;14.38;2.53;;;5.20;99.90;;;;;;5023513;28;20053;-60
2023/01/15 06:28:50;;;;;;;13.35;2.13;;;5.30;99.90;;;;;;5023792;28;20044;-60
2023/01/15 06:31:19;;;;;;;12.27;1.98;;;5.40;99.90;;;;;;5024510;28;20533;-61
2023/01/15 06:33:45;;;;;;;12.95;2.58;;;5.30;99.90;;;;;;5024988;28;20064;-61
2023/01/15 06:36:14;;;;;;;16.55;3.03;;;5.20;99.90;;;;;;5024818;28;20053;-60
2023/01/15 06:38:40;;;;;;;13.63;2.10;;;5.30;99.90;;;;;;5023453;28;20385;-60
2023/01/15 06:47:19;;;;;;;4.93;1.23;;;5.20;99.90;;;;;;5024662;28;20366;-60
2023/01/15 06:49:28;;;;;;;10.43;2.28;;;5.20;99.90;;;;;;5024762;28;20417;-60
2023/01/15 06:51:54;;;;;;;10.98;2.13;;;5.00;99.90;;;;;;5023300;28;20336;-61
2023/01/15 06:54:20;;;;;;;13.98;2.28;;;5.10;99.90;;;;;;5023208;28;20060;-60
2023/01/15 06:56:45;;;;;;;6.60;1.42;;;5.10;99.90;;;;;;5024739;28;20402;-61
2023/01/15 06:59:11;;;;;;;13.27;2.78;;;5.30;99.90;;;;;;5024532;28;20034;-61
2023/01/15 07:01:37;;;;;;;6.13;1.45;;;5.20;99.90;;;;;;5024975;28;20221;-62
2023/01/15 07:04:02;;;;;;;11.40;2.08;;;5.10;99.90;;;;;;5024856;28;20061;-61
2023/01/15 07:06:28;;;;;;;7.60;1.88;;;5.10;99.90;;;;;;5024682;28;20045;-60
2023/01/15 07:08:54;;;;;;;6.60;1.52;;;5.40;99.90;;;;;;5024097;28;20558;-60
2023/01/15 07:11:20;;;;;;;9.82;2.00;;;5.40;99.90;;;;;;5023968;28;20042;-60
2023/01/15 07:13:45;;;;;;;9.65;1.80;;;5.20;99.90;;;;;;5024197;28;20564;-60
2023/01/15 07:16:26;;;;;;;9.15;1.40;;;5.30;99.90;;;;;;5023592;28;20045;-61
2023/01/15 07:18:54;;;;;;;11.32;1.60;;;5.20;99.90;;;;;;5023139;28;20053;-60
2023/01/15 07:21:19;;;;;;;8.88;1.75;;;5.10;99.90;;;;;;5024717;28;20360;-61
2023/01/15 07:23:45;;;;;;;9.02;1.88;;;5.20;99.90;;;;;;5023718;28;20556;-60
2023/01/15 07:26:11;;;;;;;9.05;1.73;;;5.30;99.90;;;;;;5022551;28;20414;-61
2023/01/15 07:28:36;;;;;;;10.60;1.77;;;5.30;99.90;;;;;;5024592;28;20077;-60
2023/01/15 07:31:02;;;;;;;7.55;1.98;;;5.40;99.90;;;;;;5024680;28;20042;-60
2023/01/15 07:33:28;;;;;;;5.10;1.15;;;5.10;99.90;;;;;;5023910;28;20045;-60
2023/01/15 07:35:54;;;;;;;11.45;1.70;;;5.20;99.90;;;;;;5024389;28;20069;-60
2023/01/15 07:38:19;;;;;;;9.30;1.73;;;5.00;99.90;;;;;;5022588;28;20084;-60
2023/01/15 07:49:44;;;;;;;11.15;1.65;;;5.00;99.90;;;;;;5023781;28;20140;-60
2023/01/15 07:51:53;;;;;;;5.00;1.02;;;5.30;99.90;;;;;;5027950;28;20132;-60
2023/01/15 07:54:22;;;;;;;9.70;2.17;;;5.00;99.90;;;;;;5025918;28;20125;-60
2023/01/15 07:56:49;;;;;;;8.15;1.40;;;5.00;99.90;;;;;;5027416;28;20668;-60
2023/01/15 07:59:15;;;;;;;12.77;2.17;;;4.90;99.90;;;;;;5027538;28;20077;-60
2023/01/15 08:01:40;;;;;;;11.93;1.75;;;5.00;99.90;;;;;;5027404;28;20130;-61
2023/01/15 08:04:06;;;;;;;8.75;1.73;;;4.90;99.90;;;;;;5027609;28;20033;-60
2023/01/15 08:06:31;;;;;;;9.07;1.83;;;4.90;99.90;;;;;;5027665;28;20141;-61
2023/01/15 08:08:57;;;;;;;9.15;1.85;;;5.00;99.90;;;;;;5025920;28;20048;-61
2023/01/15 08:16:53;;;;;;;10.77;2.05;;;5.00;99.90;;;;;;5027017;28;20049;-60
2023/01/15 08:19:19;;;;;;;7.40;1.55;;;5.10;99.90;;;;;;5027365;28;20045;-60
2023/01/15 08:21:44;;;;;;;13.50;1.83;;;5.10;99.90;;;;;;5027323;28;20048;-60
2023/01/15 08:24:10;;;;;;;9.52;1.58;;;5.20;99.90;;;;;;5026170;28;20517;-60
2023/01/15 08:26:35;;;;;;;10.68;2.20;;;5.20;99.90;;;;;;5027351;28;20119;-60
2023/01/15 08:29:01;;;;;;;6.97;1.60;;;5.20;99.90;;;;;;5027400;28;20132;-60
2023/01/15 08:31:27;;;;;;;8.30;1.70;;;5.20;99.90;;;;;;5026112;28;20081;-60
2023/01/15 08:33:52;;;;;;;6.15;1.60;;;5.10;99.90;;;;;;5026159;28;20068;-61
2023/01/15 08:36:18;;;;;;;7.30;1.13;;;5.20;99.90;;;;;;5027234;28;20490;-59
2023/01/15 08:38:44;;;;;;;8.82;1.55;;;5.10;99.90;;;;;;5026184;28;20458;-60
2023/01/15 08:41:09;;;;;;;11.23;2.22;;;5.10;99.90;;;;;;5026351;28;20084;-61
2023/01/15 08:43:35;;;;;;;7.47;1.77;;;5.20;99.90;;;;;;5027167;28;20567;-59
2023/01/15 08:46:03;;;;;;;9.88;1.80;;;5.20;99.90;;;;;;5025411;28;20132;-61
2023/01/15 08:48:30;;;;;;;7.75;1.50;;;5.30;99.90;;;;;;5026206;28;20045;-59
2023/01/15 08:50:56;;;;;;;8.60;2.08;;;5.40;99.90;;;;;;5026763;28;20427;-60
2023/01/15 08:53:23;;;;;;;6.82;1.48;;;5.50;99.90;;;;;;5026255;28;20044;-60
2023/01/15 08:55:49;;;;;;;6.10;1.60;;;5.60;99.90;;;;;;5026033;28;20037;-60
2023/01/15 08:58:16;;;;;;;8.25;1.45;;;5.70;99.90;;;;;;5026795;28;20472;-61
2023/01/15 09:00:42;;;;;;;8.43;1.60;;;5.70;99.90;;;;;;5026033;28;20041;-59
2023/01/15 09:03:08;;;;;;;9.07;1.23;;;5.70;99.90;;;;;;5025496;28;20124;-61
2023/01/15 09:05:36;;;;;;;8.40;1.52;;;5.50;99.90;;;;;;5027369;28;20041;-60
2023/01/15 09:08:04;;;;;;;9.20;2.08;;;5.50;99.90;;;;;;5026962;28;20037;-59
2023/01/15 09:10:30;;;;;;;15.75;2.20;;;5.30;99.90;;;;;;5027670;28;20395;-61
2023/01/15 09:12:59;;;;;;;6.95;1.60;;;5.20;99.90;;;;;;5027689;28;20064;-60
2023/01/15 09:15:25;;;;;;;8.20;2.40;;;5.10;99.90;;;;;;5027610;28;20045;-61
2023/01/15 09:17:50;;;;;;;8.65;2.33;;;5.00;99.90;;;;;;5027635;28;20042;-61
2023/01/15 09:20:16;;;;;;;8.52;2.08;;;5.10;99.90;;;;;;5027267;28;20111;-60
2023/01/15 09:22:42;;;;;;;9.60;1.73;;;5.20;99.90;;;;;;5027558;28;20616;-62
2023/01/15 09:25:08;;;;;;;10.60;1.88;;;5.00;99.90;;;;;;5027240;28;20045;-61
2023/01/15 09:27:34;;;;;;;11.35;2.00;;;4.80;99.90;;;;;;5027598;28;20045;-59
2023/01/15 09:29:59;;;;;;;9.73;1.38;;;4.80;99.90;;;;;;5027639;28;20041;-61
2023/01/15 09:32:25;;;;;;;6.80;1.27;;;4.80;99.90;;;;;;5027649;28;20452;-60
2023/01/15 09:34:51;;;;;;;8.10;1.65;;;4.90;99.90;;;;;;5027020;28;20045;-61
2023/01/15 09:37:16;;;;;;;9.75;1.60;;;5.00;99.90;;;;;;5027574;28;20088;-61
2023/01/15 09:39:42;;;;;;;7.82;2.40;;;4.70;99.90;;;;;;5027280;28;20072;-61
2023/01/15 09:42:31;;;;;;;7.95;1.63;;;5.10;99.90;;;;;;5028107;28;20049;-60
2023/01/15 09:45:05;;;;;;;8.82;1.77;;;4.70;99.90;;;;;;5027163;28;20128;-61
2023/01/15 09:48:05;;;;;;;10.77;2.20;;;4.40;99.90;;;;;;5027311;28;20069;-61
2023/01/15 09:50:43;;;;;;;10.13;2.10;;;3.70;99.90;;;;;;5026960;28;20041;-61
2023/01/15 09:53:32;;;;;;;9.43;2.03;;;4.10;99.90;;;;;;5027221;28;20045;-60
2023/01/15 09:55:59;;;;;;;9.30;1.80;;;4.40;99.90;;;;;;5026726;28;20486;-61
2023/01/15 09:58:37;;;;;;;5.85;1.92;;;4.40;99.90;;;;;;5026840;28;20065;-60
2023/01/15 10:01:04;;;;;;;8.48;1.75;;;4.80;99.90;;;;;;5026263;28;20048;-60
2023/01/15 10:03:46;;;;;;;5.75;1.23;;;5.20;99.90;;;;;;5025219;28;20502;-61
2023/01/15 10:06:22;;;;;;;5.78;1.42;;;5.70;99.90;;;;;;5025562;28;20041;-59
2023/01/15 10:08:49;;;;;;;8.02;2.25;;;5.60;99.90;;;;;;5023832;28;20045;-61
2023/01/15 10:11:15;;;;;;;7.57;1.33;;;6.00;99.90;;;;;;5023924;28;20103;-65
2023/01/15 10:13:44;;;;;;;3.75;1.13;;;6.00;99.90;;;;;;5024611;28;20041;-61
2023/01/15 10:16:18;;;;;;;6.40;1.83;;;6.10;99.90;;;;;;5024912;28;20045;-60
2023/01/15 10:18:44;;;;;;;10.35;1.38;;;6.20;99.90;;;;;;5025548;28;20464;-60
2023/01/15 10:21:25;;;;;;;8.07;1.25;;;6.20;99.90;;;;;;5025270;28;20042;-60
2023/01/15 10:24:25;;;;;;;8.30;1.60;;;6.40;99.90;;;;;;5024194;28;20079;-60
2023/01/15 10:26:56;;;;;;;7.07;1.58;;;6.30;99.90;;;;;;4990585;28;20057;-59
2023/01/15 10:29:52;;;;;;;6.07;1.10;;;5.90;99.90;;;;;;5024736;28;20045;-60
2023/01/15 10:32:28;;;;;;;5.97;1.98;;;5.70;99.90;;;;;;5024853;28;20051;-61
2023/01/15 10:35:12;;;;;;;6.30;1.50;;;5.20;99.90;;;;;;5024939;28;20504;-61
2023/01/15 10:38:17;;;;;;;9.23;1.48;;;5.30;99.90;;;;;;5024014;28;20052;-61
2023/01/15 10:41:02;;;;;;;10.25;1.98;;;5.80;99.90;;;;;;5023621;28;20088;-61
2023/01/15 10:43:47;;;;;;;10.25;1.98;;;6.10;99.90;;;;;;5024723;28;20051;-61
2023/01/15 10:46:21;;;;;;;4.30;1.20;;;6.40;99.90;;;;;;5025441;28;20107;-60
2023/01/15 10:48:46;;;;;;;3.65;1.30;;;6.50;99.90;;;;;;5022855;28;20099;-61
2023/01/15 10:51:28;;;;;;;7.28;1.23;;;6.40;99.90;;;;;;5024971;28;20045;-60
2023/01/15 10:54:05;;;;;;;9.90;2.25;;;6.30;99.90;;;;;;5023835;28;20124;-60
2023/01/15 10:57:00;;;;;;;6.70;1.80;;;6.30;99.90;;;;;;5024550;28;20059;-60
2023/01/15 10:59:46;;;;;;;6.25;1.73;;;6.00;99.90;;;;;;5024427;28;20052;-60
2023/01/15 11:02:34;;;;;;;7.78;1.83;;;5.60;99.90;;;;;;5025135;28;20077;-60
2023/01/15 11:05:01;;;;;;;8.60;1.63;;;5.60;99.90;;;;;;5023209;28;20419;-61
2023/01/15 11:07:36;;;;;;;10.63;2.50;;;5.60;99.90;;;;;;5024598;28;20037;-61
2023/01/15 11:10:08;;;;;;;8.48;1.88;;;5.40;99.90;;;;;;5022699;28;20048;-60
2023/01/15 11:21:23;;;;;;;5.85;1.10;;;6.10;99.90;;;;;;5024312;28;20116;-60
2023/01/15 11:23:50;;;;;;;4.53;0.82;;;6.20;99.90;;;;;;5023859;28;20127;-62
2023/01/15 11:26:31;;;;;;;5.13;1.30;;;6.30;99.90;;;;;;5028651;28;20378;-61
2023/01/15 11:29:00;;;;;;;8.00;1.85;;;5.80;99.90;;;;;;5028016;28;20033;-61
2023/01/15 11:31:39;;;;;;;8.35;1.60;;;6.00;99.90;;;;;;5027914;28;20124;-61
2023/01/15 11:34:16;;;;;;;7.32;1.92;;;6.20;99.90;;;;;;5028023;28;20071;-61
2023/01/15 11:36:42;;;;;;;9.30;1.70;;;6.00;99.90;;;;;;5026662;28;20136;-61
2023/01/15 11:39:22;;;;;;;8.38;1.85;;;6.20;99.90;;;;;;5027500;28;20184;-61
2023/01/15 11:52:59;;;;;;;8.02;1.70;;;6.10;99.90;;;;;;5021263;28;20052;-61
2023/01/15 11:55:27;;;;;;;9.57;2.00;;;6.30;99.90;;;;;;5023101;28;20042;-61
2023/01/15 11:57:55;;;;;;;9.52;1.40;;;6.30;99.90;;;;;;5025949;28;20498;-60
2023/01/15 12:00:34;;;;;;;11.07;1.98;;;6.20;99.90;;;;;;5023883;28;20056;-62
2023/01/15 12:03:11;;;;;;;12.75;2.20;;;6.10;99.90;;;;;;5011712;28;20041;-60
2023/01/15 12:05:43;;;;;;;9.45;2.30;;;6.30;99.90;;;;;;5025157;28;20079;-61
2023/01/15 12:08:41;;;;;;;11.55;1.88;;;6.20;99.90;;;;;;5025097;28;20049;-61
2023/01/15 12:11:38;;;;;;;5.45;1.40;;;6.30;99.90;;;;;;5016927;28;20111;-60
2023/01/15 12:14:13;;;;;;;9.48;1.52;;;6.10;99.90;;;;;;5020368;28;20041;-61
2023/01/15 12:16:55;;;;;;;9.95;1.60;;;6.10;99.90;;;;;;5026025;28;20088;-61
2023/01/15 12:19:29;;;;;;;11.27;1.75;;;6.20;99.90;;;;;;5027530;28;20049;-62
2023/01/15 12:21:58;;;;;;;11.38;2.15;;;6.30;99.90;;;;;;5026724;28;20045;-61
2023/01/15 12:24:43;;;;;;;7.63;1.67;;;6.50;99.90;;;;;;5026071;28;20532;-60
2023/01/15 12:27:09;;;;;;;;;;;6.50;99.90;;;;;;5027589;28;20052;-61
2023/01/15 12:29:47;;;;;;;6.63;1.63;;;6.40;99.90;;;;;;5024754;28;20378;-61
2023/01/15 12:32:30;;;;;;;9.38;1.63;;;6.40;99.90;;;;;;5027028;28;20654;-61
2023/01/15 12:35:06;;;;;;;10.82;1.85;;;6.40;99.90;;;;;;5025219;28;20133;-61
2023/01/15 12:37:49;;;;;;;10.48;2.00;;;6.20;99.90;;;;;;5022027;28;20148;-61
2023/01/15 12:40:39;;;;;;;7.40;1.98;;;6.30;99.90;;;;;;5024628;28;20053;-60
2023/01/15 12:46:09;;;;;;;8.98;1.90;;;6.20;99.90;;;;;;5024479;28;20465;-60
2023/01/15 12:49:00;;;;;;;10.70;2.15;;;6.20;99.90;;;;;;5023792;28;20045;-60
2023/01/15 12:51:50;;;;;;;12.13;2.00;;;6.40;99.90;;;;;;5024889;28;20099;-62
2023/01/15 12:54:24;;;;;;;10.60;2.22;;;6.40;99.90;;;;;;5018434;28;20053;-61
2023/01/15 12:57:39;;;;;;;9.43;2.10;;;6.10;99.90;;;;;;5024862;28;20051;-61
2023/01/15 13:00:16;;;;;;;5.63;1.25;;;6.10;99.90;;;;;;5015702;28;20300;-60
2023/01/15 13:03:02;;;;;;;8.82;1.90;;;6.30;99.90;;;;;;5023971;28;20049;-60
2023/01/15 13:05:45;;;;;;;8.60;2.05;;;6.30;99.90;;;;;;5023748;28;20115;-62
2023/01/15 13:08:37;;;;;;;9.80;1.92;;;5.90;99.90;;;;;;5014136;28;20052;-61
2023/01/15 13:11:03;;;;;;;7.45;1.73;;;6.30;99.90;;;;;;5008971;28;20411;-61
2023/01/15 13:13:36;;;;;;;15.60;3.33;;;6.40;99.90;;;;;;5023882;28;20037;-61
2023/01/15 13:16:02;;;;;;;10.13;2.28;;;6.30;99.90;;;;;;5022230;28;20112;-60
2023/01/15 13:18:48;;;;;;;11.50;2.03;;;6.20;99.90;;;;;;5023921;28;20124;-61
2023/01/15 13:21:17;;;;;;;9.88;1.90;;;6.00;99.90;;;;;;5014682;28;20097;-61
2023/01/15 13:24:14;;;;;;;9.55;2.35;;;6.00;99.90;;;;;;5020938;28;20038;-61
2023/01/15 13:26:57;;;;;;;12.35;2.45;;;5.50;99.90;;;;;;5013690;28;20081;-61
2023/01/15 13:29:38;;;;;;;7.57;1.60;;;5.60;99.90;;;;;;5022589;28;20033;-61
2023/01/15 13:32:29;;;;;;;5.07;1.27;;;4.60;99.90;;;;;;5023828;28;20034;-61
2023/01/15 13:35:07;;;;;;;5.10;1.40;;;4.70;99.90;;;;;;5010820;28;20065;-62
2023/01/15 13:37:53;;;;;;;6.18;1.20;;;4.20;99.90;;;;;;5022443;28;20291;-62
2023/01/15 13:40:37;;;;;;;7.07;1.42;;;4.50;99.90;;;;;;5024185;28;20076;-61
2023/01/15 13:43:04;;;;;;;3.72;0.70;;;4.20;99.90;;;;;;5023764;28;20042;-61
2023/01/15 13:45:42;;;;;;;5.43;1.05;;;4.70;99.90;;;;;;5022709;28;20057;-61
2023/01/15 13:48:14;;;;;;;3.22;0.98;;;4.30;99.90;;;;;;5022862;28;20044;-61
2023/01/15 13:50:50;;;;;;;8.30;1.60;;;4.30;99.90;;;;;;5022801;28;20107;-61
2023/01/15 13:53:40;;;;;;;8.10;1.85;;;4.80;99.90;;;;;;5022603;28;20033;-61
2023/01/15 13:56:09;;;;;;;4.53;1.17;;;4.50;99.90;;;;;;5023709;28;20461;-61
2023/01/15 13:58:39;;;;;;;3.75;0.90;;;5.10;99.90;;;;;;5022208;28;20041;-61
2023/01/15 14:01:16;;;;;;;5.60;1.30;;;5.10;99.90;;;;;;5022420;28;20511;-61
2023/01/15 14:03:54;;;;;;;3.33;0.90;;;4.50;99.90;;;;;;5022744;28;20037;-60
2023/01/15 14:06:20;;;;;;;4.57;1.05;;;4.80;99.90;;;;;;5023618;28;20096;-60
2023/01/15 14:08:45;;;;;;;5.43;1.02;;;4.60;99.90;;;;;;5020953;28;20049;-61
2023/01/15 14:11:33;;;;;;;3.85;0.93;;;4.80;99.90;;;;;;5022237;28;20172;-61